createdAt,value
2018-04-14T00:01:17.331Z,41.03
2018-04-14T00:03:44.897Z,41.07
2018-04-14T00:06:13.113Z,41.20
2018-04-14T00:08:40.653Z,40.67
2018-04-14T00:11:08.209Z,41.50
2018-04-14T00:13:35.803Z,44.53
2018-04-14T00:16:03.396Z,40.60
2018-04-14T00:18:30.947Z,38.47
2018-04-14T00:20:59.064Z,38.90
2018-04-14T00:23:26.615Z,38.90
2018-04-14T00:25:54.413Z,40.63
2018-04-14T00:28:21.985Z,40.13
2018-04-14T00:30:49.534Z,38.13
2018-04-14T00:33:17.235Z,38.90
2018-04-14T00:35:45.014Z,37.93
2018-04-14T00:38:12.995Z,36.70
2018-04-14T00:40:40.565Z,36.43
2018-04-14T00:43:08.101Z,36.33
2018-04-14T00:45:35.687Z,37.67
2018-04-14T00:48:03.392Z,36.20
2018-04-14T00:50:30.994Z,35.67
2018-04-14T00:53:10.312Z,38.47
2018-04-14T00:55:38.028Z,38.70
2018-04-14T00:58:05.585Z,38.90
2018-04-14T01:00:33.134Z,39.83
2018-04-14T01:03:00.759Z,39.13
2018-04-14T01:05:28.316Z,36.77
2018-04-14T01:07:55.857Z,36.90
2018-04-14T01:10:23.507Z,37.87
2018-04-14T01:12:51.054Z,38.07
2018-04-14T01:15:18.724Z,39.27
2018-04-14T01:17:46.458Z,36.37
2018-04-14T01:20:14.025Z,34.97
2018-04-14T01:22:41.758Z,37.07
2018-04-14T01:25:09.585Z,36.80
2018-04-14T01:27:37.132Z,35.50
2018-04-14T01:30:05.057Z,35.87
2018-04-14T01:32:32.610Z,34.23
2018-04-14T01:35:00.306Z,35.80
2018-04-14T01:37:27.965Z,37.57
2018-04-14T01:39:55.531Z,35.40
2018-04-14T01:42:23.131Z,34.10
2018-04-14T01:44:50.683Z,33.67
2018-04-14T01:47:18.248Z,35.90
2018-04-14T01:49:46.166Z,37.03
2018-04-14T01:52:13.709Z,34.13
2018-04-14T01:54:41.249Z,39.33
2018-04-14T01:57:08.970Z,40.13
2018-04-14T01:59:36.527Z,42.57
2018-04-14T02:02:04.159Z,42.53
2018-04-14T02:04:31.987Z,40.90
2018-04-14T02:06:59.548Z,39.13
2018-04-14T02:09:27.166Z,36.50
2018-04-14T02:11:54.718Z,41.40
2018-04-14T02:14:22.274Z,40.10
2018-04-14T02:16:50.395Z,40.93
2018-04-14T02:19:17.937Z,38.93
2018-04-14T02:21:45.612Z,39.17
2018-04-14T02:24:13.209Z,41.33
2018-04-14T02:26:40.963Z,41.83
2018-04-14T02:29:08.740Z,41.43
2018-04-14T02:31:36.469Z,42.53
2018-04-14T02:34:04.025Z,43.37
2018-04-14T02:36:31.583Z,44.40
2018-04-14T02:38:59.357Z,40.47
2018-04-14T02:41:26.913Z,42.53
2018-04-14T02:43:54.692Z,40.10
2018-04-14T02:46:22.444Z,42.10
2018-04-14T02:48:50.144Z,41.27
2018-04-14T02:51:17.814Z,46.53
2018-04-14T02:53:45.670Z,42.67
2018-04-14T02:56:13.228Z,47.40
2018-04-14T02:58:40.789Z,42.67
2018-04-14T03:01:08.750Z,41.63
2018-04-14T03:03:36.487Z,46.90
2018-04-14T03:06:04.043Z,44.33
2018-04-14T03:08:32.082Z,40.97
2018-04-14T03:10:59.836Z,45.93
2018-04-14T03:13:27.377Z,47.20
2018-04-14T03:15:55.088Z,44.57
2018-04-14T03:18:22.654Z,47.07
2018-04-14T03:20:50.849Z,47.17
2018-04-14T03:23:18.524Z,42.87
2018-04-14T03:25:46.093Z,47.17
2018-04-14T03:28:13.670Z,48.43
2018-04-14T03:30:41.205Z,46.17
2018-04-14T03:33:08.933Z,45.20
2018-04-14T03:35:36.478Z,46.07
2018-04-14T03:38:04.022Z,48.90
2018-04-14T03:40:31.590Z,42.87
2018-04-14T03:42:59.419Z,46.80
2018-04-14T03:45:27.130Z,45.17
2018-04-14T03:47:54.870Z,47.73
2018-04-14T03:50:22.418Z,48.87
2018-04-14T03:52:49.986Z,48.53
2018-04-14T03:55:17.727Z,46.10
2018-04-14T03:57:45.472Z,46.83
2018-04-14T04:00:13.016Z,45.57
2018-04-14T04:02:40.586Z,45.13
2018-04-14T04:05:08.166Z,42.77
2018-04-14T04:07:35.746Z,44.40
2018-04-14T04:10:03.304Z,46.90
2018-04-14T04:12:30.894Z,47.40
2018-04-14T04:14:58.643Z,46.10
2018-04-14T04:17:26.185Z,46.70
2018-04-14T04:20:05.815Z,47.93
2018-04-14T04:22:45.476Z,45.67
2018-04-14T04:25:24.652Z,46.87
2018-04-14T04:27:52.429Z,48.50
2018-04-14T04:30:19.973Z,47.20
2018-04-14T04:32:47.646Z,50.17
2018-04-14T04:35:15.251Z,47.30
2018-04-14T04:37:42.793Z,47.83
2018-04-14T04:40:10.337Z,47.63
2018-04-14T04:42:38.248Z,45.27
2018-04-14T04:45:05.800Z,45.30
2018-04-14T04:47:33.341Z,48.80
2018-04-14T04:50:00.922Z,46.13
2018-04-14T04:52:28.494Z,48.80
2018-04-14T04:54:56.306Z,50.37
2018-04-14T04:57:23.991Z,52.17
2018-04-14T04:59:51.973Z,47.53
2018-04-14T05:02:19.530Z,48.30
2018-04-14T05:04:47.091Z,46.80
2018-04-14T05:07:14.794Z,47.07
2018-04-14T05:09:42.534Z,47.10
2018-04-14T05:12:10.112Z,44.90
2018-04-14T05:14:37.672Z,44.23
2018-04-14T05:17:05.556Z,47.60
2018-04-14T05:19:33.110Z,50.50
2018-04-14T05:22:00.849Z,47.47
2018-04-14T05:24:28.462Z,45.60
2018-04-14T05:26:56.002Z,50.40
2018-04-14T05:29:23.570Z,52.13
2018-04-14T05:31:51.147Z,51.27
2018-04-14T05:34:18.689Z,51.87
2018-04-14T05:36:46.494Z,55.03
2018-04-14T05:39:14.061Z,46.90
2018-04-14T05:41:42.777Z,47.67
2018-04-14T05:44:10.541Z,53.07
2018-04-14T05:46:38.112Z,46.73
2018-04-14T05:49:05.814Z,48.60
2018-04-14T05:51:33.391Z,48.27
2018-04-14T05:54:00.947Z,52.37
2018-04-14T05:56:28.539Z,50.90
2018-04-14T05:58:56.137Z,49.10
2018-04-14T06:01:23.686Z,51.90
2018-04-14T06:03:51.239Z,50.27
2018-04-14T06:06:18.819Z,50.60
2018-04-14T06:08:46.369Z,49.60
2018-04-14T06:11:14.055Z,50.13
2018-04-14T06:13:41.597Z,48.27
2018-04-14T06:16:09.303Z,47.13
2018-04-14T06:18:37.077Z,48.50
2018-04-14T06:21:04.959Z,51.87
2018-04-14T06:23:32.525Z,50.00
2018-04-14T06:26:00.079Z,53.13
2018-04-14T06:28:28.025Z,50.33
2018-04-14T06:30:55.594Z,49.67
2018-04-14T06:33:23.159Z,48.77
2018-04-14T06:35:50.740Z,51.00
2018-04-14T06:38:18.485Z,51.10
2018-04-14T06:40:46.046Z,47.70
2018-04-14T06:43:13.835Z,52.43
2018-04-14T06:45:41.419Z,49.70
2018-04-14T06:48:09.002Z,53.60
2018-04-14T06:50:36.549Z,49.90
2018-04-14T06:53:04.250Z,53.40
2018-04-14T06:55:31.905Z,53.50
2018-04-14T06:57:59.449Z,53.43
2018-04-14T07:00:27.039Z,50.17
2018-04-14T07:02:54.596Z,50.43
2018-04-14T07:05:22.260Z,52.27
2018-04-14T07:07:49.821Z,46.60
2018-04-14T07:10:17.382Z,49.47
2018-04-14T07:12:45.121Z,50.83
2018-04-14T07:15:12.732Z,46.23
2018-04-14T07:17:40.276Z,46.37
2018-04-14T07:20:07.939Z,44.60
2018-04-14T07:22:35.551Z,42.60
2018-04-14T07:25:03.190Z,46.87
2018-04-14T07:27:30.742Z,45.57
2018-04-14T07:29:58.544Z,44.33
2018-04-14T07:32:26.129Z,45.20
2018-04-14T07:34:53.723Z,43.60
2018-04-14T07:37:21.308Z,43.33
2018-04-14T07:39:48.874Z,39.83
2018-04-14T07:42:16.444Z,41.70
2018-04-14T07:44:43.984Z,38.40
2018-04-14T07:47:11.581Z,43.43
2018-04-14T07:49:39.125Z,37.97
2018-04-14T07:52:06.800Z,39.00
2018-04-14T07:54:34.370Z,36.67
2018-04-14T07:57:01.918Z,37.13
2018-04-14T07:59:29.512Z,37.00
2018-04-14T08:01:57.231Z,39.57
2018-04-14T08:04:24.788Z,36.43
2018-04-14T08:06:52.343Z,37.23
2018-04-14T08:09:20.196Z,41.53
2018-04-14T08:11:48.011Z,34.37
2018-04-14T08:14:15.612Z,37.93
2018-04-14T08:16:43.388Z,39.43
2018-04-14T08:19:10.934Z,38.23
2018-04-14T08:21:38.709Z,34.83
2018-04-14T08:24:06.618Z,38.53
2018-04-14T08:26:34.175Z,38.57
2018-04-14T08:29:01.709Z,35.83
2018-04-14T08:31:29.286Z,36.93
2018-04-14T08:33:56.872Z,37.33
2018-04-14T08:36:24.417Z,37.43
2018-04-14T08:38:51.989Z,39.73
2018-04-14T08:41:19.809Z,38.40
2018-04-14T08:43:47.586Z,36.00
2018-04-14T08:46:15.134Z,37.17
2018-04-14T08:48:42.704Z,35.53
2018-04-14T08:51:10.270Z,34.10
2018-04-14T08:53:38.083Z,36.03
2018-04-14T08:56:05.655Z,35.37
2018-04-14T08:58:33.232Z,38.63
2018-04-14T09:01:00.927Z,34.83
2018-04-14T09:03:28.473Z,33.37
2018-04-14T09:05:56.028Z,35.57
2018-04-14T09:08:23.597Z,33.17
2018-04-14T09:10:51.145Z,34.70
2018-04-14T09:13:18.979Z,31.80
2018-04-14T09:15:46.554Z,34.10
2018-04-14T09:18:14.169Z,33.50
2018-04-14T09:20:42.001Z,31.90
2018-04-14T09:23:09.678Z,30.73
2018-04-14T09:25:37.453Z,27.80
2018-04-14T09:28:05.037Z,31.10
2018-04-14T09:30:32.657Z,32.53
2018-04-14T09:33:00.206Z,31.77
2018-04-14T09:35:27.945Z,34.80
2018-04-14T09:37:55.923Z,32.97
2018-04-14T09:40:23.518Z,33.03
2018-04-14T09:42:51.187Z,33.10
2018-04-14T09:45:18.915Z,33.53
2018-04-14T09:47:46.476Z,34.20
2018-04-14T09:50:14.072Z,30.87
2018-04-14T09:52:41.803Z,35.33
2018-04-14T09:55:09.343Z,29.57
2018-04-14T09:57:36.882Z,33.20
2018-04-14T10:00:04.463Z,31.27
2018-04-14T10:02:37.577Z,32.23
2018-04-14T10:05:05.298Z,28.43
2018-04-14T10:07:32.899Z,28.93
2018-04-14T10:10:00.461Z,30.33
2018-04-14T10:12:28.365Z,28.33
2018-04-14T10:14:56.090Z,27.73
2018-04-14T10:17:23.635Z,27.53
2018-04-14T10:19:51.221Z,25.27
2018-04-14T10:22:18.752Z,25.30
2018-04-14T10:24:46.484Z,22.07
2018-04-14T10:27:14.259Z,20.97
2018-04-14T10:29:41.806Z,22.00
2018-04-14T10:32:09.509Z,21.90
2018-04-14T10:34:37.070Z,25.20
2018-04-14T10:37:04.629Z,22.50
2018-04-14T10:39:32.160Z,24.43
2018-04-14T10:41:59.948Z,21.97
2018-04-14T10:44:27.574Z,22.77
2018-04-14T10:46:55.113Z,22.80
2018-04-14T10:49:22.684Z,24.27
2018-04-14T10:51:50.247Z,24.30
2018-04-14T10:54:17.854Z,25.60
2018-04-14T10:56:45.412Z,24.73
2018-04-14T10:59:12.963Z,25.20
2018-04-14T11:01:40.927Z,27.10
2018-04-14T11:04:08.577Z,25.93
2018-04-14T11:06:36.145Z,27.37
2018-04-14T11:09:03.756Z,27.17
2018-04-14T11:11:31.310Z,26.50
2018-04-14T11:13:58.874Z,26.50
2018-04-14T11:16:26.418Z,25.93
2018-04-14T11:18:54.428Z,25.23
2018-04-14T11:21:21.973Z,24.17
2018-04-14T11:23:49.782Z,25.50
2018-04-14T11:26:17.342Z,25.30
2018-04-14T11:28:44.902Z,25.33
2018-04-14T11:31:12.849Z,25.73
2018-04-14T11:33:40.398Z,27.90
2018-04-14T11:36:08.184Z,30.70
2018-04-14T11:38:35.723Z,26.43
2018-04-14T11:41:03.398Z,25.70
2018-04-14T11:43:31.086Z,28.20
2018-04-14T11:45:58.648Z,26.30
2018-04-14T11:48:26.190Z,26.10
2018-04-14T11:50:53.833Z,26.90
2018-04-14T11:53:21.362Z,25.50
2018-04-14T11:55:49.110Z,25.23
2018-04-14T11:58:16.687Z,24.13
2018-04-14T12:00:44.505Z,26.63
2018-04-14T12:03:12.280Z,24.20
2018-04-14T12:05:40.059Z,23.20
2018-04-14T12:08:07.640Z,26.17
2018-04-14T12:10:35.190Z,26.10
2018-04-14T12:13:03.394Z,26.77
2018-04-14T12:15:31.064Z,24.50
2018-04-14T12:17:58.745Z,27.40
2018-04-14T12:20:26.359Z,25.57
2018-04-14T12:22:53.931Z,25.87
2018-04-14T12:25:21.669Z,24.67
2018-04-14T12:27:49.471Z,24.97
2018-04-14T12:30:17.028Z,24.00
2018-04-14T12:32:44.571Z,25.90
2018-04-14T12:35:12.138Z,25.70
2018-04-14T12:37:39.689Z,24.93
2018-04-14T12:40:07.249Z,25.77
2018-04-14T12:42:34.816Z,25.57
2018-04-14T12:45:02.454Z,25.17
2018-04-14T12:47:30.007Z,25.30
2018-04-14T12:49:57.613Z,24.77
2018-04-14T12:52:25.192Z,24.67
2018-04-14T12:54:52.758Z,25.80
2018-04-14T12:57:20.421Z,23.43
2018-04-14T12:59:47.979Z,25.40
2018-04-14T13:02:15.676Z,24.47
2018-04-14T13:04:43.612Z,23.70
2018-04-14T13:07:11.180Z,22.07
2018-04-14T13:09:38.731Z,23.90
2018-04-14T13:12:06.481Z,25.27
2018-04-14T13:14:34.078Z,23.90
2018-04-14T13:17:01.732Z,24.93
2018-04-14T13:19:29.312Z,23.73
2018-04-14T13:21:56.868Z,24.67
2018-04-14T13:24:24.430Z,22.30
2018-04-14T13:26:52.002Z,20.10
2018-04-14T13:29:19.542Z,21.37
2018-04-14T13:31:48.630Z,22.07
2018-04-14T13:34:16.203Z,21.57
2018-04-14T13:36:43.755Z,21.10
2018-04-14T13:39:11.371Z,19.60
2018-04-14T13:41:38.909Z,21.27
2018-04-14T13:44:06.462Z,21.17
2018-04-14T13:46:34.189Z,21.30
2018-04-14T13:49:01.795Z,20.10
2018-04-14T13:51:29.354Z,19.20
2018-04-14T13:53:56.907Z,21.43
2018-04-14T13:56:24.486Z,22.50
2018-04-14T13:58:52.036Z,21.47
2018-04-14T14:01:19.787Z,20.47
2018-04-14T14:03:47.459Z,22.07
2018-04-14T14:06:15.042Z,21.90
2018-04-14T14:46:51.184Z,24.20
2018-04-14T14:49:18.780Z,23.23
2018-04-14T14:51:46.321Z,23.37
2018-04-14T14:54:14.047Z,23.50
2018-04-14T14:56:41.669Z,20.67
2018-04-14T14:59:09.294Z,21.37
2018-04-14T15:01:36.823Z,21.83
2018-04-14T15:04:04.406Z,22.60
2018-04-14T15:06:32.222Z,24.53
2018-04-14T15:08:59.761Z,20.57
2018-04-14T15:11:27.572Z,24.30
2018-04-14T15:13:55.179Z,22.30
2018-04-14T15:16:22.739Z,23.63
2018-04-14T15:18:50.278Z,22.07
2018-04-14T15:21:17.965Z,24.40
2018-04-14T15:23:45.515Z,22.90
2018-04-14T15:26:13.317Z,23.87
2018-04-14T15:28:41.313Z,22.03
2018-04-14T15:31:08.859Z,23.60
2018-04-14T15:33:36.400Z,23.60
2018-04-14T15:36:04.000Z,21.90
2018-04-14T15:38:31.719Z,23.40
2018-04-14T15:40:59.258Z,23.47
2018-04-14T15:43:26.807Z,25.30
2018-04-14T15:45:54.618Z,24.83
2018-04-14T15:48:22.169Z,24.77
2018-04-14T15:50:49.726Z,21.77
2018-04-14T15:53:17.850Z,22.63
2018-04-14T15:55:45.384Z,21.67
2018-04-14T15:58:12.926Z,24.07
2018-04-14T16:00:40.494Z,20.63
2018-04-14T16:03:08.054Z,23.87
2018-04-14T16:05:35.738Z,21.40
2018-04-14T16:08:03.492Z,22.70
2018-04-14T16:10:31.273Z,24.60
2018-04-14T16:12:58.963Z,22.97
2018-04-14T16:15:26.577Z,23.70
2018-04-14T16:17:54.125Z,22.50
2018-04-14T16:20:21.743Z,23.87
2018-04-14T16:22:49.290Z,25.47
2018-04-14T16:25:16.849Z,23.70
2018-04-14T16:27:44.745Z,25.60
2018-04-14T16:30:12.290Z,23.30
2018-04-14T16:32:40.048Z,23.10
2018-04-14T16:35:07.687Z,24.93
2018-04-14T16:37:35.235Z,26.50
2018-04-14T16:40:02.809Z,23.30
2018-04-14T16:42:30.445Z,23.90
2018-04-14T16:44:58.183Z,24.40
2018-04-14T16:47:25.736Z,24.50
2018-04-14T16:49:53.417Z,23.50
2018-04-14T16:52:20.961Z,23.90
2018-04-14T16:54:48.494Z,22.50
2018-04-14T16:57:16.073Z,25.00
2018-04-14T16:59:43.626Z,24.43
2018-04-14T17:02:11.193Z,24.03
2018-04-14T17:04:38.738Z,23.80
2018-04-14T17:07:06.484Z,24.27
2018-04-14T17:09:34.237Z,24.43
2018-04-14T17:12:01.930Z,22.57
2018-04-14T17:14:29.474Z,24.77
2018-04-14T17:16:57.398Z,24.23
2018-04-14T17:19:25.064Z,22.97
2018-04-14T17:21:52.606Z,21.90
2018-04-14T17:24:20.416Z,21.30
2018-04-14T17:26:47.953Z,24.07
2018-04-14T17:29:15.518Z,22.13
2018-04-14T17:31:43.052Z,26.53
2018-04-14T17:34:10.631Z,22.30
2018-04-14T17:36:38.387Z,23.17
2018-04-14T17:39:06.893Z,22.67
2018-04-14T17:41:34.447Z,22.30
2018-04-14T17:44:02.233Z,23.17
2018-04-14T17:46:29.775Z,23.93
2018-04-14T17:48:57.358Z,23.07
2018-04-14T17:51:24.927Z,23.60
2018-04-14T17:53:52.498Z,23.37
2018-04-14T17:56:20.324Z,23.53
2018-04-14T17:58:47.898Z,22.50
2018-04-14T18:01:15.479Z,27.20
2018-04-14T18:03:43.434Z,24.63
2018-04-14T18:06:10.983Z,21.87
2018-04-14T18:08:38.575Z,24.47
2018-04-14T18:11:06.164Z,24.27
2018-04-14T18:13:33.826Z,22.57
2018-04-14T18:16:01.368Z,25.17
2018-04-14T18:18:28.930Z,26.20
2018-04-14T18:20:56.488Z,25.53
2018-04-14T18:23:24.045Z,24.17
2018-04-14T18:25:51.590Z,24.70
2018-04-14T18:28:19.266Z,25.20
2018-04-14T18:30:46.815Z,25.30
2018-04-14T18:33:14.756Z,24.07
2018-04-14T18:35:42.498Z,27.50
2018-04-14T18:38:10.042Z,30.37
2018-04-14T18:40:37.713Z,26.60
2018-04-14T18:43:05.262Z,26.27
2018-04-14T18:45:32.900Z,27.27
2018-04-14T18:48:00.457Z,25.87
2018-04-14T18:50:28.007Z,27.57
2018-04-14T18:52:55.560Z,28.33
2018-04-14T18:55:23.493Z,27.73
2018-04-14T18:57:51.025Z,31.40
2018-04-14T19:00:18.575Z,27.47
2018-04-14T19:02:46.177Z,27.90
2018-04-14T19:05:13.940Z,30.90
2018-04-14T19:07:41.563Z,32.27
2018-04-14T19:10:09.205Z,30.90
2018-04-14T19:12:36.774Z,28.90
2018-04-14T19:15:04.361Z,29.63
2018-04-14T19:17:31.937Z,29.63
2018-04-14T19:19:59.691Z,32.07
2018-04-14T19:22:27.390Z,30.90
2018-04-14T19:24:55.150Z,31.83
2018-04-14T19:27:22.916Z,28.47
2018-04-14T19:29:50.454Z,29.23
2018-04-14T19:32:17.995Z,28.40
2018-04-14T19:34:45.586Z,31.27
2018-04-14T19:37:13.368Z,30.93
2018-04-14T19:39:40.935Z,28.83
2018-04-14T19:42:08.525Z,29.00
2018-04-14T19:44:36.068Z,30.93
2018-04-14T19:47:03.597Z,28.67
2018-04-14T19:49:31.345Z,29.80
2018-04-14T19:51:58.885Z,30.00
2018-04-14T19:54:26.468Z,29.70
2018-04-14T19:56:54.177Z,30.63
2018-04-14T19:59:21.718Z,30.03
2018-04-14T20:01:49.262Z,30.23
2018-04-14T20:04:16.830Z,30.07
2018-04-14T20:06:44.631Z,31.27
2018-04-14T20:09:12.435Z,31.83
2018-04-14T20:11:40.030Z,34.67
2018-04-14T20:14:07.618Z,29.37
2018-04-14T20:16:35.160Z,30.00
2018-04-14T20:19:02.897Z,29.37
2018-04-14T20:21:30.433Z,28.37
2018-04-14T20:23:57.985Z,31.10
2018-04-14T20:26:25.555Z,30.13
2018-04-14T20:28:53.113Z,29.03
2018-04-14T20:31:20.815Z,31.90
2018-04-14T20:33:48.347Z,29.80
2018-04-14T20:36:15.887Z,29.63
2018-04-14T20:38:43.450Z,30.37
2018-04-14T20:41:11.048Z,31.07
2018-04-14T20:43:38.785Z,29.37
2018-04-14T20:46:06.321Z,28.77
2018-04-14T20:48:33.862Z,29.80
2018-04-14T20:51:01.467Z,28.57
2018-04-14T20:53:29.265Z,30.73
2018-04-14T20:55:56.810Z,31.83
2018-04-14T20:58:24.376Z,28.83
2018-04-14T21:00:51.936Z,30.90
2018-04-14T21:03:19.506Z,30.73
2018-04-14T21:05:47.042Z,29.47
2018-04-14T21:08:14.965Z,30.70
2018-04-14T21:10:42.509Z,29.43
2018-04-14T21:13:10.153Z,29.53
2018-04-14T21:15:37.850Z,29.03
2018-04-14T21:18:05.393Z,31.10
2018-04-14T21:20:32.934Z,32.10
2018-04-14T21:23:00.524Z,30.63
2018-04-14T21:25:28.071Z,35.53
2018-04-14T21:27:55.688Z,30.53
2018-04-14T21:30:23.234Z,31.27
2018-04-14T21:32:50.778Z,29.50
2018-04-14T21:35:18.515Z,31.73
2018-04-14T21:37:46.086Z,33.30
2018-04-14T21:40:14.480Z,31.13
2018-04-14T21:42:42.085Z,29.87
2018-04-14T21:45:09.804Z,29.53
2018-04-14T21:47:37.359Z,32.40
2018-04-14T21:50:04.944Z,29.17
2018-04-14T21:52:32.540Z,32.03
2018-04-14T21:55:00.227Z,30.73
2018-04-14T21:57:27.765Z,32.13
2018-04-14T21:59:55.356Z,34.93
2018-04-14T22:02:22.911Z,32.20
2018-04-14T22:04:50.526Z,32.07
2018-04-14T22:07:18.328Z,33.13
2018-04-14T22:09:45.867Z,34.30
2018-04-14T22:12:13.417Z,34.40
2018-04-14T22:14:40.987Z,38.30
2018-04-14T22:17:08.543Z,38.30
2018-04-14T22:19:36.133Z,37.63
2018-04-14T22:22:03.946Z,36.20
2018-04-14T22:24:31.485Z,39.20
2018-04-14T22:26:59.036Z,37.40
2018-04-14T22:29:26.605Z,38.00
2018-04-14T22:31:54.248Z,37.03
2018-04-14T22:34:22.090Z,40.40
2018-04-14T22:36:49.653Z,41.13
2018-04-14T22:39:17.197Z,41.30
2018-04-14T22:41:45.158Z,40.20
2018-04-14T22:44:12.722Z,38.80
2018-04-14T22:46:40.451Z,38.57
2018-04-14T22:49:08.280Z,40.20
2018-04-14T22:51:35.840Z,35.10
2018-04-14T22:54:03.467Z,36.77
2018-04-14T22:56:31.002Z,37.07
2018-04-14T22:58:58.541Z,39.47
2018-04-14T23:01:26.175Z,39.17
2018-04-14T23:03:53.735Z,40.13
2018-04-14T23:06:21.290Z,36.17
2018-04-14T23:08:48.894Z,34.67
2018-04-14T23:11:16.753Z,36.87
2018-04-14T23:13:44.541Z,37.23
2018-04-14T23:16:12.089Z,37.20
2018-04-14T23:18:39.776Z,35.40
2018-04-14T23:21:07.314Z,36.30
2018-04-14T23:23:34.882Z,38.63
2018-04-14T23:26:02.430Z,37.80
2018-04-14T23:28:30.270Z,38.20
2018-04-14T23:30:57.925Z,34.57
2018-04-14T23:33:25.610Z,33.33
2018-04-14T23:35:53.148Z,37.30
2018-04-14T23:38:20.867Z,32.43
2018-04-14T23:40:48.420Z,35.30
2018-04-14T23:43:16.221Z,34.10
2018-04-14T23:45:43.821Z,36.33
2018-04-14T23:48:11.353Z,31.83
2018-04-14T23:50:39.144Z,32.53
2018-04-14T23:53:06.710Z,34.10
2018-04-14T23:55:34.400Z,33.77
2018-04-14T23:58:02.077Z,33.17
